createdAt,value
2018-09-30T00:04:18.016Z,4.60
2018-09-30T00:08:58.386Z,4.50
2018-09-30T00:13:38.307Z,4.50
2018-09-30T00:18:19.017Z,4.40
2018-09-30T00:22:59.225Z,4.30
2018-09-30T00:27:39.669Z,4.20
2018-09-30T00:32:19.937Z,4.20
2018-09-30T00:37:00.634Z,4.20
2018-09-30T00:41:40.424Z,4.30
2018-09-30T00:46:20.396Z,4.30
2018-09-30T00:51:00.429Z,4.30
2018-09-30T00:55:40.730Z,4.20
2018-09-30T01:00:21.888Z,4.10
2018-09-30T01:05:02.236Z,3.90
2018-09-30T01:09:41.929Z,3.90
2018-09-30T01:14:22.692Z,3.90
2018-09-30T01:19:03.726Z,3.80
2018-09-30T01:23:43.748Z,3.80
2018-09-30T01:28:24.623Z,3.90
2018-09-30T01:33:04.622Z,3.80
2018-09-30T01:37:44.865Z,3.80
2018-09-30T01:42:24.946Z,3.70
2018-09-30T01:47:05.127Z,3.80
2018-09-30T01:51:45.000Z,3.70
2018-09-30T01:56:24.957Z,3.70
2018-09-30T02:01:04.929Z,3.60
2018-09-30T02:05:45.289Z,3.60
2018-09-30T02:10:25.332Z,3.60
2018-09-30T02:15:06.403Z,3.70
2018-09-30T02:19:47.120Z,3.60
2018-09-30T02:24:27.289Z,3.50
2018-09-30T02:29:07.852Z,3.40
2018-09-30T02:33:47.937Z,3.30
2018-09-30T02:38:28.484Z,3.30
2018-09-30T02:43:08.504Z,3.30
2018-09-30T02:47:49.930Z,3.30
2018-09-30T02:52:29.861Z,3.20
2018-09-30T02:57:09.920Z,3.20
2018-09-30T03:01:50.134Z,3.20
2018-09-30T03:06:35.368Z,3.10
2018-09-30T03:11:15.528Z,3.10
2018-09-30T03:16:02.246Z,3.00
2018-09-30T03:20:43.253Z,3.00
2018-09-30T03:25:23.283Z,3.10
2018-09-30T03:30:03.505Z,3.10
2018-09-30T03:34:43.577Z,3.00
2018-09-30T03:39:24.216Z,2.90
2018-09-30T03:44:04.396Z,2.80
2018-09-30T03:48:44.658Z,2.80
2018-09-30T03:53:24.861Z,2.80
2018-09-30T03:58:05.127Z,2.80
2018-09-30T04:02:45.280Z,2.80
2018-09-30T04:07:25.152Z,2.80
2018-09-30T04:12:06.339Z,2.70
2018-09-30T04:16:46.377Z,2.70
2018-09-30T04:21:27.142Z,2.70
2018-09-30T04:26:07.038Z,2.60
2018-09-30T04:30:47.091Z,2.70
2018-09-30T04:35:27.182Z,2.60
2018-09-30T04:40:07.572Z,2.60
2018-09-30T04:44:48.087Z,2.50
2018-09-30T04:49:28.090Z,2.50
2018-09-30T04:54:08.180Z,2.40
2018-09-30T04:58:48.250Z,2.40
2018-09-30T05:03:28.428Z,2.40
2018-09-30T05:08:08.355Z,2.40
2018-09-30T05:12:48.245Z,2.40
2018-09-30T05:17:28.216Z,2.40
2018-09-30T05:22:08.494Z,2.50
2018-09-30T05:26:48.599Z,2.60
2018-09-30T05:31:28.478Z,2.60
2018-09-30T05:36:08.990Z,2.60
2018-09-30T05:40:49.492Z,2.60
2018-09-30T05:45:29.476Z,2.60
2018-09-30T05:50:09.698Z,2.50
2018-09-30T05:54:49.769Z,2.50
2018-09-30T05:59:29.792Z,2.60
2018-09-30T06:04:10.694Z,2.80
2018-09-30T06:08:50.786Z,3.10
2018-09-30T06:13:30.855Z,3.30
2018-09-30T06:18:11.128Z,3.50
2018-09-30T06:22:51.221Z,3.80
2018-09-30T06:27:31.082Z,4.10
2018-09-30T06:32:11.380Z,4.40
2018-09-30T06:36:52.090Z,4.70
2018-09-30T06:41:32.322Z,5.30
2018-09-30T06:46:12.583Z,5.70
2018-09-30T06:50:52.789Z,6.20
2018-09-30T06:55:32.882Z,6.70
2018-09-30T07:00:13.890Z,7.30
2018-09-30T07:04:54.148Z,8.20
2018-09-30T07:09:34.021Z,9.90
2018-09-30T07:14:15.005Z,12.00
2018-09-30T07:18:55.121Z,13.70
2018-09-30T07:23:35.485Z,15.10
2018-09-30T07:28:17.653Z,16.10
2018-09-30T07:32:58.156Z,17.30
2018-09-30T07:37:38.193Z,18.20
2018-09-30T07:42:18.276Z,19.20
2018-09-30T07:46:58.641Z,19.70
2018-09-30T07:51:39.372Z,20.00
2018-09-30T07:56:19.536Z,19.90
2018-09-30T08:00:59.493Z,20.80
2018-09-30T08:05:40.677Z,21.30
2018-09-30T08:10:20.685Z,22.10
2018-09-30T08:15:00.659Z,22.80
2018-09-30T08:19:41.072Z,23.30
2018-09-30T08:24:21.323Z,24.00
2018-09-30T08:29:01.769Z,24.60
2018-09-30T08:33:42.295Z,25.10
2018-09-30T08:38:27.449Z,25.20
2018-09-30T08:43:08.205Z,25.20
2018-09-30T08:47:48.440Z,25.60
2018-09-30T08:52:28.705Z,25.80
2018-09-30T08:57:09.182Z,26.40
2018-09-30T09:01:50.197Z,26.70
2018-09-30T09:06:30.395Z,26.60
2018-09-30T09:11:10.774Z,26.90
2018-09-30T09:15:50.621Z,27.30
2018-09-30T09:20:30.946Z,27.90
2018-09-30T09:25:11.353Z,27.80
2018-09-30T09:29:51.066Z,28.10
2018-09-30T09:34:31.709Z,28.10
2018-09-30T09:39:12.453Z,29.00
2018-09-30T09:43:52.506Z,29.70
2018-09-30T09:48:32.593Z,29.10
2018-09-30T09:53:12.534Z,29.20
2018-09-30T09:57:52.409Z,29.30
2018-09-30T10:02:33.322Z,29.60
2018-09-30T10:07:14.021Z,29.40
2018-09-30T10:11:54.809Z,29.40
2018-09-30T10:16:35.229Z,30.00
2018-09-30T10:21:15.417Z,29.70
2018-09-30T10:25:55.403Z,29.90
2018-09-30T10:30:35.557Z,29.50
2018-09-30T10:35:15.461Z,29.50
2018-09-30T10:39:56.081Z,29.50
2018-09-30T10:44:36.390Z,29.60
2018-09-30T10:49:16.245Z,29.60
2018-09-30T10:53:56.765Z,30.10
2018-09-30T10:58:37.256Z,30.40
2018-09-30T11:03:17.339Z,30.40
2018-09-30T11:07:57.861Z,30.20
2018-09-30T11:12:38.914Z,30.20
2018-09-30T11:17:20.617Z,30.30
2018-09-30T11:22:01.652Z,30.40
2018-09-30T11:26:42.522Z,30.50
2018-09-30T11:31:25.449Z,30.20
2018-09-30T11:36:13.071Z,30.50
2018-09-30T11:40:53.736Z,30.60
2018-09-30T11:45:33.980Z,30.50
2018-09-30T11:50:14.061Z,30.60
2018-09-30T11:54:54.604Z,30.30
2018-09-30T11:59:34.985Z,30.70
2018-09-30T12:04:15.057Z,31.20
2018-09-30T12:08:57.276Z,32.20
2018-09-30T12:13:38.402Z,32.00
2018-09-30T12:18:22.110Z,32.20
2018-09-30T12:23:02.322Z,32.40
2018-09-30T12:27:49.077Z,32.40
2018-09-30T12:32:38.957Z,31.70
2018-09-30T12:37:19.498Z,31.70
2018-09-30T12:42:00.449Z,32.40
2018-09-30T12:46:40.838Z,32.30
2018-09-30T12:51:20.996Z,31.50
2018-09-30T12:56:04.932Z,31.20
2018-09-30T13:00:51.777Z,30.60
2018-09-30T13:05:32.821Z,30.50
2018-09-30T13:10:12.904Z,30.30
2018-09-30T13:14:52.842Z,30.50
2018-09-30T13:19:33.010Z,30.50
2018-09-30T13:24:13.083Z,29.60
2018-09-30T13:28:53.121Z,29.50
2018-09-30T13:33:33.524Z,29.80
2018-09-30T13:38:26.923Z,29.70
2018-09-30T13:43:07.929Z,30.00
2018-09-30T13:47:47.790Z,30.20
2018-09-30T13:52:27.835Z,29.70
2018-09-30T13:57:07.750Z,29.70
2018-09-30T14:01:48.073Z,29.40
2018-09-30T14:06:28.497Z,29.00
2018-09-30T14:11:08.389Z,27.90
2018-09-30T14:15:48.550Z,27.00
2018-09-30T14:20:29.013Z,26.70
2018-09-30T14:25:10.328Z,26.60
2018-09-30T14:29:50.241Z,25.80
2018-09-30T14:34:30.312Z,24.70
2018-09-30T14:39:12.828Z,24.00
2018-09-30T14:43:53.069Z,23.70
2018-09-30T14:48:33.527Z,23.30
2018-09-30T14:53:14.273Z,23.10
2018-09-30T14:57:54.232Z,22.90
2018-09-30T15:02:35.523Z,22.40
2018-09-30T15:07:16.011Z,21.90
2018-09-30T15:11:56.036Z,21.50
2018-09-30T15:16:36.065Z,21.30
2018-09-30T15:21:16.608Z,21.00
2018-09-30T15:25:56.636Z,21.00
2018-09-30T15:30:36.585Z,21.00
2018-09-30T15:35:16.880Z,20.90
2018-09-30T15:39:58.708Z,20.70
2018-09-30T15:44:39.030Z,20.50
2018-09-30T15:49:19.296Z,20.30
2018-09-30T15:53:59.358Z,20.10
2018-09-30T15:58:39.755Z,19.90
2018-09-30T16:03:19.905Z,19.70
2018-09-30T16:07:59.698Z,19.50
2018-09-30T16:12:39.688Z,19.40
2018-09-30T16:17:19.737Z,19.20
2018-09-30T16:21:59.813Z,19.00
2018-09-30T16:26:39.890Z,18.80
2018-09-30T16:31:19.956Z,18.60
2018-09-30T16:36:00.739Z,18.40
2018-09-30T16:40:40.605Z,18.20
2018-09-30T16:45:20.722Z,18.10
2018-09-30T16:50:00.682Z,17.80
2018-09-30T16:54:40.649Z,17.40
2018-09-30T16:59:20.992Z,17.10
2018-09-30T17:04:01.597Z,16.90
2018-09-30T17:08:41.690Z,16.50
2018-09-30T17:13:21.624Z,16.30
2018-09-30T17:18:01.838Z,16.00
2018-09-30T17:22:42.068Z,15.70
2018-09-30T17:27:22.425Z,15.30
2018-09-30T17:32:03.109Z,15.10
2018-09-30T17:36:43.178Z,14.90
2018-09-30T17:41:23.261Z,14.70
2018-09-30T17:46:03.309Z,14.50
2018-09-30T17:50:43.453Z,14.30
2018-09-30T17:55:23.403Z,14.10
2018-09-30T18:00:04.178Z,13.90
2018-09-30T18:04:44.850Z,13.60
2018-09-30T18:09:25.563Z,13.40
2018-09-30T18:14:06.260Z,13.10
2018-09-30T18:18:46.288Z,13.10
2018-09-30T18:23:26.432Z,12.90
2018-09-30T18:28:06.413Z,12.70
2018-09-30T18:32:46.316Z,12.50
2018-09-30T18:37:26.356Z,12.40
2018-09-30T18:42:06.452Z,12.20
2018-09-30T18:46:46.587Z,12.10
2018-09-30T18:51:26.705Z,11.90
2018-09-30T18:56:06.803Z,11.80
2018-09-30T19:00:46.772Z,11.60
2018-09-30T19:05:27.050Z,11.50
2018-09-30T19:10:07.043Z,11.50
2018-09-30T19:14:47.025Z,11.40
2018-09-30T19:19:27.129Z,11.20
2018-09-30T19:24:07.154Z,11.10
2018-09-30T19:28:46.984Z,11.00
2018-09-30T19:33:27.294Z,10.90
2018-09-30T19:38:08.038Z,10.90
2018-09-30T19:42:48.481Z,10.90
2018-09-30T19:47:29.193Z,10.80
2018-09-30T19:52:10.223Z,10.60
2018-09-30T19:56:49.989Z,10.40
2018-09-30T20:01:30.164Z,10.30
2018-09-30T20:06:12.182Z,10.20
2018-09-30T20:10:55.254Z,10.20
2018-09-30T20:15:35.696Z,10.10
2018-09-30T20:20:16.119Z,10.00
2018-09-30T20:24:56.555Z,9.90
2018-09-30T20:29:37.306Z,9.90
2018-09-30T20:34:18.209Z,9.70
2018-09-30T20:38:58.543Z,9.70
2018-09-30T20:43:39.272Z,9.70
2018-09-30T20:48:19.797Z,9.60
2018-09-30T20:53:10.440Z,9.50
2018-09-30T20:57:50.570Z,9.40
2018-09-30T21:02:30.435Z,9.50
2018-09-30T21:07:10.763Z,9.50
2018-09-30T21:11:51.785Z,9.60
2018-09-30T21:16:32.772Z,9.60
2018-09-30T21:21:13.755Z,9.80
2018-09-30T21:25:54.423Z,9.90
2018-09-30T21:30:35.461Z,9.80
2018-09-30T21:35:16.522Z,9.70
2018-09-30T21:39:56.668Z,9.60
2018-09-30T21:44:37.025Z,9.50
2018-09-30T21:49:17.304Z,9.40
2018-09-30T21:53:58.469Z,9.40
2018-09-30T21:58:38.687Z,9.30
2018-09-30T22:03:18.782Z,9.20
2018-09-30T22:07:58.735Z,9.10
2018-09-30T22:12:38.819Z,9.00
2018-09-30T22:17:20.121Z,8.90
2018-09-30T22:22:00.081Z,8.80
2018-09-30T22:26:40.693Z,8.70
2018-09-30T22:31:21.419Z,8.50
2018-09-30T22:36:01.685Z,8.30
2018-09-30T22:40:42.244Z,8.20
2018-09-30T22:45:22.481Z,8.20
2018-09-30T22:50:03.088Z,8.20
2018-09-30T22:54:43.280Z,8.20
2018-09-30T22:59:24.378Z,8.10
2018-09-30T23:04:04.425Z,8.00
2018-09-30T23:08:44.256Z,7.90
2018-09-30T23:13:25.181Z,7.80
2018-09-30T23:18:05.672Z,7.60
2018-09-30T23:22:45.962Z,7.60
2018-09-30T23:27:25.978Z,7.60
2018-09-30T23:32:05.896Z,7.50
2018-09-30T23:36:46.782Z,7.50
2018-09-30T23:41:27.717Z,7.40
2018-09-30T23:46:08.220Z,7.30
2018-09-30T23:50:48.422Z,7.20
2018-09-30T23:55:29.569Z,7.20
